createdAt,value
2023-03-03T00:00:47.715Z,2.26
2023-03-03T00:03:20.752Z,2.16
2023-03-03T00:05:47.566Z,2.11
2023-03-03T00:08:14.224Z,2.14
2023-03-03T00:10:41.258Z,2.11
2023-03-03T00:13:38.962Z,2.22
2023-03-03T00:16:23.065Z,2.18
2023-03-03T00:18:50.163Z,2.27
2023-03-03T00:21:30.761Z,2.29
2023-03-03T00:24:19.412Z,2.33
2023-03-03T00:26:48.159Z,2.29
2023-03-03T00:29:27.070Z,2.30
2023-03-03T00:31:54.098Z,2.29
2023-03-03T00:34:28.663Z,2.26
2023-03-03T00:36:57.784Z,2.20
2023-03-03T00:39:40.046Z,2.25
2023-03-03T00:42:15.207Z,2.20
2023-03-03T00:44:47.453Z,2.23
2023-03-03T00:47:14.068Z,2.27
2023-03-03T00:49:41.732Z,2.17
2023-03-03T00:52:17.758Z,2.15
2023-03-03T00:54:44.786Z,2.13
2023-03-03T00:57:12.772Z,2.22
2023-03-03T00:59:41.416Z,2.24
2023-03-03T01:02:09.047Z,2.25
2023-03-03T01:04:36.392Z,2.25
2023-03-03T01:07:03.379Z,2.25
2023-03-03T01:09:30.090Z,2.29
2023-03-03T01:11:56.910Z,2.30
2023-03-03T01:14:23.788Z,2.34
2023-03-03T01:16:51.347Z,2.31
2023-03-03T01:19:18.183Z,2.21
2023-03-03T01:21:44.888Z,2.23
2023-03-03T01:24:11.623Z,2.23
2023-03-03T01:26:38.560Z,2.21
2023-03-03T01:29:05.392Z,2.21
2023-03-03T01:31:32.322Z,2.24
2023-03-03T01:33:59.184Z,2.34
2023-03-03T01:36:27.641Z,2.33
2023-03-03T01:38:54.793Z,2.34
2023-03-03T01:41:21.785Z,2.22
2023-03-03T01:43:50.562Z,2.20
2023-03-03T01:46:42.374Z,2.28
2023-03-03T01:49:21.566Z,2.32
2023-03-03T01:51:54.458Z,2.38
2023-03-03T01:54:33.928Z,2.30
2023-03-03T01:57:04.630Z,2.26
2023-03-03T01:59:35.677Z,2.15
2023-03-03T02:02:03.160Z,2.08
2023-03-03T02:04:29.906Z,2.04
2023-03-03T02:07:04.450Z,2.11
2023-03-03T02:09:55.864Z,2.17
2023-03-03T02:12:31.124Z,2.18
2023-03-03T02:14:57.821Z,2.15
2023-03-03T02:17:24.693Z,2.20
2023-03-03T02:20:08.443Z,2.23
2023-03-03T02:22:46.482Z,2.22
2023-03-03T02:25:20.968Z,2.20
2023-03-03T02:27:47.681Z,2.16
2023-03-03T02:30:19.329Z,2.18
2023-03-03T02:32:46.116Z,2.16
2023-03-03T02:35:32.129Z,2.20
2023-03-03T02:38:22.862Z,2.30
2023-03-03T02:41:00.648Z,2.27
2023-03-03T02:43:32.239Z,2.30
2023-03-03T02:45:58.999Z,2.23
2023-03-03T02:48:25.681Z,2.21
2023-03-03T02:50:52.877Z,2.14
2023-03-03T02:53:19.685Z,2.12
2023-03-03T02:55:46.445Z,2.05
2023-03-03T02:58:13.101Z,2.12
2023-03-03T03:00:39.933Z,2.14
2023-03-03T03:03:06.648Z,2.14
2023-03-03T03:05:34.730Z,2.22
2023-03-03T03:08:03.412Z,2.16
2023-03-03T03:10:31.175Z,2.16
2023-03-03T03:12:58.226Z,2.04
2023-03-03T03:15:25.115Z,2.05
2023-03-03T03:17:51.836Z,2.02
2023-03-03T03:20:19.078Z,2.03
2023-03-03T03:22:46.149Z,2.05
2023-03-03T03:25:12.851Z,2.11
2023-03-03T03:27:40.102Z,2.10
2023-03-03T03:30:07.645Z,1.96
2023-03-03T03:32:35.162Z,1.83
2023-03-03T03:35:01.984Z,1.84
2023-03-03T03:37:28.957Z,1.87
2023-03-03T03:39:56.396Z,1.95
2023-03-03T03:42:23.668Z,2.00
2023-03-03T03:44:51.688Z,1.86
2023-03-03T03:47:18.973Z,1.77
2023-03-03T03:49:45.876Z,1.73
2023-03-03T03:52:13.188Z,1.76
2023-03-03T03:54:39.975Z,1.90
2023-03-03T03:57:06.667Z,1.93
2023-03-03T03:59:33.653Z,1.95
2023-03-03T04:02:00.436Z,2.01
2023-03-03T04:04:27.204Z,1.97
2023-03-03T04:06:54.158Z,1.86
2023-03-03T04:09:21.074Z,1.68
2023-03-03T04:11:48.049Z,1.76
2023-03-03T04:14:15.379Z,1.81
2023-03-03T04:16:42.443Z,1.77
2023-03-03T04:19:10.003Z,1.72
2023-03-03T04:21:38.384Z,1.76
2023-03-03T04:24:05.748Z,1.77
2023-03-03T04:26:33.812Z,1.85
2023-03-03T04:29:02.860Z,1.88
2023-03-03T04:31:30.123Z,1.87
2023-03-03T04:33:57.199Z,1.83
2023-03-03T04:36:24.581Z,1.79
2023-03-03T04:38:51.404Z,1.84
2023-03-03T04:41:18.552Z,1.90
2023-03-03T04:43:45.568Z,1.86
2023-03-03T04:46:13.828Z,1.99
2023-03-03T04:48:40.561Z,1.86
2023-03-03T04:51:07.348Z,1.88
2023-03-03T04:53:38.290Z,1.83
2023-03-03T04:56:06.403Z,1.80
2023-03-03T04:58:33.197Z,1.80
2023-03-03T05:00:59.978Z,1.84
2023-03-03T05:03:28.982Z,1.83
2023-03-03T05:05:55.928Z,1.88
2023-03-03T05:08:23.233Z,1.95
2023-03-03T05:10:54.594Z,1.88
2023-03-03T05:13:21.455Z,1.86
2023-03-03T05:15:53.030Z,1.92
2023-03-03T05:18:20.310Z,1.94
2023-03-03T05:20:47.146Z,1.96
2023-03-03T05:23:14.180Z,1.93
2023-03-03T05:25:42.374Z,2.00
2023-03-03T05:28:10.567Z,1.97
2023-03-03T05:30:37.856Z,1.90
2023-03-03T05:33:05.315Z,1.93
2023-03-03T05:35:32.301Z,1.92
2023-03-03T05:37:58.952Z,1.90
2023-03-03T05:40:27.172Z,1.88
2023-03-03T05:42:53.943Z,1.91
2023-03-03T05:45:21.324Z,2.02
2023-03-03T05:47:48.460Z,2.13
2023-03-03T05:50:15.936Z,2.04
2023-03-03T05:52:42.763Z,2.00
2023-03-03T05:55:10.098Z,1.88
2023-03-03T05:57:36.728Z,1.86
2023-03-03T06:00:06.024Z,1.97
2023-03-03T06:02:39.300Z,1.97
2023-03-03T06:05:06.837Z,1.90
2023-03-03T06:07:33.499Z,2.01
2023-03-03T06:10:00.429Z,1.98
2023-03-03T06:12:28.995Z,1.94
2023-03-03T06:14:55.761Z,1.93
2023-03-03T06:17:22.432Z,1.92
2023-03-03T06:19:49.048Z,1.87
2023-03-03T06:22:15.678Z,1.84
2023-03-03T06:24:42.372Z,1.73
2023-03-03T06:27:09.720Z,1.70
2023-03-03T06:29:36.446Z,1.72
2023-03-03T06:32:03.433Z,1.77
2023-03-03T06:34:30.312Z,1.82
2023-03-03T06:36:57.246Z,1.85
2023-03-03T06:39:23.966Z,1.91
2023-03-03T06:41:50.684Z,1.90
2023-03-03T06:44:17.485Z,1.89
2023-03-03T06:46:44.098Z,1.79
2023-03-03T06:49:10.731Z,1.74
2023-03-03T06:51:39.991Z,1.69
2023-03-03T06:54:19.450Z,1.75
2023-03-03T06:56:47.380Z,1.76
2023-03-03T06:59:23.395Z,1.83
2023-03-03T07:01:51.526Z,2.00
2023-03-03T07:04:29.341Z,2.03
2023-03-03T07:06:58.552Z,1.98
2023-03-03T07:09:28.620Z,1.90
2023-03-03T07:12:02.485Z,1.80
2023-03-03T07:14:30.433Z,1.82
2023-03-03T07:17:00.758Z,1.74
2023-03-03T07:19:34.301Z,1.75
2023-03-03T07:22:14.471Z,1.88
2023-03-03T07:24:42.400Z,2.04
2023-03-03T07:27:19.985Z,2.04
2023-03-03T07:29:51.934Z,1.98
2023-03-03T07:32:37.357Z,2.04
2023-03-03T07:35:24.626Z,2.06
2023-03-03T07:37:51.556Z,2.01
2023-03-03T07:40:35.999Z,2.14
2023-03-03T07:43:30.448Z,2.14
2023-03-03T07:46:15.104Z,2.18
2023-03-03T07:48:42.942Z,2.30
2023-03-03T07:51:50.021Z,2.31
2023-03-03T07:54:29.828Z,2.31
2023-03-03T07:57:03.168Z,2.32
2023-03-03T07:59:37.102Z,2.42
2023-03-03T08:02:16.401Z,2.40
2023-03-03T08:04:50.931Z,2.42
2023-03-03T08:07:19.756Z,2.47
2023-03-03T08:10:00.830Z,2.53
2023-03-03T08:12:42.979Z,2.63
2023-03-03T08:15:22.832Z,2.59
2023-03-03T08:17:50.972Z,2.70
2023-03-03T08:20:51.156Z,2.83
2023-03-03T08:23:19.208Z,2.85
2023-03-03T08:25:47.101Z,2.87
2023-03-03T08:28:14.716Z,2.80
2023-03-03T08:30:42.090Z,2.85
2023-03-03T08:33:08.780Z,2.92
2023-03-03T08:35:35.498Z,2.94
2023-03-03T08:38:02.297Z,3.06
2023-03-03T08:40:28.918Z,3.08
2023-03-03T08:42:55.628Z,3.10
2023-03-03T08:45:22.266Z,3.13
2023-03-03T08:47:48.917Z,3.16
2023-03-03T08:50:16.038Z,3.28
2023-03-03T08:52:43.176Z,3.26
2023-03-03T08:55:10.138Z,3.25
2023-03-03T08:57:36.844Z,3.29
2023-03-03T09:00:04.048Z,3.40
2023-03-03T09:02:30.719Z,3.45
2023-03-03T09:04:57.417Z,3.58
2023-03-03T09:07:24.072Z,3.70
2023-03-03T09:09:50.821Z,3.73
2023-03-03T09:12:28.700Z,3.77
2023-03-03T09:15:00.186Z,3.92
2023-03-03T09:17:35.519Z,3.94
2023-03-03T09:20:33.710Z,4.11
2023-03-03T09:23:22.047Z,4.16
2023-03-03T09:25:48.699Z,4.23
2023-03-03T09:28:33.539Z,4.44
2023-03-03T09:31:02.297Z,4.54
2023-03-03T09:33:40.397Z,4.51
2023-03-03T09:36:35.420Z,4.61
2023-03-03T09:39:18.373Z,4.75
2023-03-03T09:42:09.432Z,5.02
2023-03-03T09:44:46.249Z,5.28
2023-03-03T09:47:45.072Z,5.30
2023-03-03T09:50:34.883Z,5.39
2023-03-03T09:53:38.672Z,5.50
2023-03-03T09:56:30.571Z,5.61
2023-03-03T09:59:12.428Z,5.72
2023-03-03T10:02:11.409Z,5.78
2023-03-03T10:04:41.123Z,5.84
2023-03-03T10:08:01.653Z,5.94
2023-03-03T10:11:03.773Z,6.07
2023-03-03T10:13:52.050Z,6.07
2023-03-03T10:16:37.410Z,6.21
2023-03-03T10:19:10.012Z,6.36
2023-03-03T10:21:50.065Z,6.43
2023-03-03T10:24:29.454Z,6.40
2023-03-03T10:27:13.446Z,6.43
2023-03-03T10:30:08.320Z,6.52
2023-03-03T10:32:38.640Z,6.66
2023-03-03T10:35:14.763Z,6.69
2023-03-03T10:37:52.837Z,6.64
2023-03-03T10:40:44.124Z,6.67
2023-03-03T10:43:13.749Z,6.63
2023-03-03T10:45:59.045Z,6.61
2023-03-03T10:48:45.186Z,6.53
2023-03-03T10:51:36.704Z,6.62
2023-03-03T10:54:06.307Z,6.67
2023-03-03T10:56:57.989Z,6.81
2023-03-03T10:59:40.974Z,6.77
2023-03-03T11:02:16.797Z,6.78
2023-03-03T11:05:02.318Z,6.86
2023-03-03T11:07:39.229Z,6.79
2023-03-03T11:10:18.771Z,6.77
2023-03-03T11:13:11.040Z,6.70
2023-03-03T11:15:56.344Z,6.72
2023-03-03T11:18:39.256Z,6.81
2023-03-03T11:21:41.655Z,6.78
2023-03-03T11:24:25.104Z,6.69
2023-03-03T11:27:06.865Z,6.76
2023-03-03T11:30:10.959Z,6.88
2023-03-03T11:33:03.447Z,6.84
2023-03-03T11:35:36.419Z,6.79
2023-03-03T11:38:31.825Z,6.87
2023-03-03T11:41:18.353Z,6.85
2023-03-03T11:43:49.286Z,6.83
2023-03-03T11:46:26.286Z,6.83
2023-03-03T11:49:02.264Z,6.67
2023-03-03T11:51:40.803Z,6.75
2023-03-03T11:54:26.185Z,6.86
2023-03-03T11:57:05.557Z,6.99
2023-03-03T11:59:44.600Z,7.14
2023-03-03T12:02:27.809Z,7.13
2023-03-03T12:05:05.628Z,7.22
2023-03-03T12:07:38.246Z,7.43
2023-03-03T12:10:18.043Z,7.44
2023-03-03T12:12:52.660Z,7.71
2023-03-03T12:15:23.495Z,7.86
2023-03-03T12:18:47.381Z,7.95
2023-03-03T12:21:43.654Z,7.80
2023-03-03T12:24:10.351Z,7.70
2023-03-03T12:27:03.564Z,7.70
2023-03-03T12:29:30.351Z,7.61
2023-03-03T12:32:09.278Z,7.67
2023-03-03T12:34:46.255Z,7.77
2023-03-03T12:37:19.100Z,7.83
2023-03-03T12:39:58.547Z,8.00
2023-03-03T12:43:12.950Z,8.19
2023-03-03T12:46:00.464Z,8.30
2023-03-03T12:48:46.794Z,8.46
2023-03-03T12:51:13.634Z,8.78
2023-03-03T12:54:00.453Z,8.93
2023-03-03T12:56:50.426Z,9.51
2023-03-03T12:59:29.882Z,9.66
2023-03-03T13:02:14.962Z,9.84
2023-03-03T13:05:23.518Z,9.90
2023-03-03T13:08:31.405Z,9.93
2023-03-03T13:11:22.342Z,9.83
2023-03-03T13:14:02.918Z,10.42
2023-03-03T13:16:41.508Z,10.89
2023-03-03T13:19:20.844Z,10.73
2023-03-03T13:22:01.538Z,10.57
2023-03-03T13:24:37.624Z,10.72
2023-03-03T13:27:04.309Z,10.68
2023-03-03T13:29:37.754Z,10.51
2023-03-03T13:32:18.876Z,10.68
2023-03-03T13:35:00.452Z,10.57
2023-03-03T13:37:37.986Z,10.62
2023-03-03T13:40:13.963Z,10.84
2023-03-03T13:42:46.679Z,10.38
2023-03-03T13:45:35.213Z,10.03
2023-03-03T13:48:33.246Z,10.34
2023-03-03T13:51:35.935Z,10.87
2023-03-03T13:54:09.301Z,10.70
2023-03-03T13:56:48.569Z,10.67
2023-03-03T13:59:37.366Z,10.81
2023-03-03T14:02:38.049Z,10.95
2023-03-03T14:05:18.723Z,11.05
2023-03-03T14:07:55.215Z,11.12
2023-03-03T14:10:31.584Z,11.02
2023-03-03T14:13:22.281Z,10.85
2023-03-03T14:16:10.514Z,10.80
2023-03-03T14:18:58.260Z,10.71
2023-03-03T14:21:40.925Z,10.63
2023-03-03T14:24:23.342Z,10.56
2023-03-03T14:26:53.009Z,10.69
2023-03-03T14:29:28.859Z,10.67
2023-03-03T14:32:20.323Z,10.80
2023-03-03T14:34:58.873Z,10.91
2023-03-03T14:37:46.490Z,10.86
2023-03-03T14:40:22.340Z,10.78
2023-03-03T14:42:51.939Z,10.87
2023-03-03T14:45:37.032Z,10.64
2023-03-03T14:48:22.974Z,10.67
2023-03-03T14:51:27.800Z,10.50
2023-03-03T14:53:56.919Z,10.47
2023-03-03T14:56:28.741Z,10.44
2023-03-03T14:59:17.069Z,10.23
2023-03-03T15:01:44.070Z,10.20
2023-03-03T15:04:25.267Z,10.10
2023-03-03T15:06:54.643Z,10.11
2023-03-03T15:09:45.723Z,10.09
2023-03-03T15:12:25.914Z,10.10
2023-03-03T15:15:20.146Z,9.96
2023-03-03T15:17:49.856Z,9.83
2023-03-03T15:20:44.081Z,9.73
2023-03-03T15:23:28.149Z,9.60
2023-03-03T15:26:02.447Z,9.49
2023-03-03T15:29:06.189Z,9.38
2023-03-03T15:31:57.415Z,9.22
2023-03-03T15:35:00.307Z,9.11
2023-03-03T15:37:48.775Z,9.19
2023-03-03T15:40:28.983Z,9.07
2023-03-03T15:43:14.632Z,9.01
2023-03-03T15:45:53.265Z,8.86
2023-03-03T15:48:31.250Z,8.65
2023-03-03T15:51:11.881Z,8.51
2023-03-03T15:54:01.982Z,8.37
2023-03-03T15:56:34.775Z,8.20
2023-03-03T15:59:42.381Z,8.10
2023-03-03T16:02:16.204Z,8.07
2023-03-03T16:05:03.462Z,8.00
2023-03-03T16:08:14.326Z,7.86
2023-03-03T16:10:57.079Z,7.86
2023-03-03T16:13:23.632Z,7.87
2023-03-03T16:15:53.637Z,7.74
2023-03-03T16:18:20.348Z,7.59
2023-03-03T16:20:57.321Z,7.52
2023-03-03T16:23:47.253Z,7.40
2023-03-03T16:26:41.013Z,7.36
2023-03-03T16:29:10.535Z,7.32
2023-03-03T16:32:06.331Z,7.22
2023-03-03T16:35:00.506Z,7.11
2023-03-03T16:37:36.639Z,6.96
2023-03-03T16:40:14.858Z,6.85
2023-03-03T16:42:41.516Z,6.68
2023-03-03T16:45:26.878Z,6.64
2023-03-03T16:48:11.607Z,6.61
2023-03-03T16:51:10.743Z,6.54
2023-03-03T16:53:45.616Z,6.50
2023-03-03T16:56:23.966Z,6.35
2023-03-03T16:58:57.245Z,6.28
2023-03-03T17:01:48.663Z,6.22
2023-03-03T17:04:21.654Z,6.11
2023-03-03T17:07:00.123Z,6.04
2023-03-03T17:10:02.022Z,5.94
2023-03-03T17:12:49.827Z,5.73
2023-03-03T17:15:36.393Z,5.53
2023-03-03T17:18:25.846Z,5.43
2023-03-03T17:20:59.083Z,5.25
2023-03-03T17:23:40.901Z,5.12
2023-03-03T17:26:28.411Z,5.00
2023-03-03T17:29:01.005Z,4.93
2023-03-03T17:31:48.813Z,4.88
2023-03-03T17:35:03.071Z,4.91
2023-03-03T17:38:11.091Z,4.90
2023-03-03T17:40:46.716Z,4.88
2023-03-03T17:43:34.844Z,4.86
2023-03-03T17:46:05.177Z,4.78
2023-03-03T17:48:49.118Z,4.81
2023-03-03T17:51:24.359Z,4.75
2023-03-03T17:54:27.523Z,4.73
2023-03-03T17:57:31.407Z,4.70
2023-03-03T18:00:19.365Z,4.57
2023-03-03T18:02:49.044Z,4.48
2023-03-03T18:05:43.286Z,4.41
2023-03-03T18:08:32.291Z,4.27
2023-03-03T18:11:38.153Z,4.12
2023-03-03T18:14:13.644Z,4.18
2023-03-03T18:17:08.265Z,4.17
2023-03-03T18:19:56.932Z,4.18
2023-03-03T18:22:30.722Z,4.13
2023-03-03T18:25:08.509Z,4.05
2023-03-03T18:27:40.828Z,3.99
2023-03-03T18:30:24.672Z,4.06
2023-03-03T18:32:57.054Z,4.05
2023-03-03T18:35:26.722Z,4.01
2023-03-03T18:37:54.803Z,3.95
2023-03-03T18:40:24.416Z,3.95
2023-03-03T18:42:53.868Z,3.87
2023-03-03T18:45:20.492Z,3.89
2023-03-03T18:48:05.519Z,3.86
2023-03-03T18:50:36.604Z,3.75
2023-03-03T18:53:28.604Z,3.71
2023-03-03T18:56:01.067Z,3.66
2023-03-03T18:58:42.432Z,3.57
2023-03-03T19:01:12.056Z,3.55
2023-03-03T19:03:47.612Z,3.51
2023-03-03T19:06:52.615Z,3.42
2023-03-03T19:09:40.561Z,3.34
2023-03-03T19:12:11.318Z,3.25
2023-03-03T19:14:40.367Z,3.32
2023-03-03T19:17:20.637Z,3.29
2023-03-03T19:20:11.953Z,3.24
2023-03-03T19:22:52.426Z,3.22
2023-03-03T19:25:27.179Z,3.16
2023-03-03T19:28:11.436Z,3.12
2023-03-03T19:30:59.688Z,3.12
2023-03-03T19:34:16.476Z,3.05
2023-03-03T19:36:58.259Z,3.01
2023-03-03T19:39:37.742Z,2.94
2023-03-03T19:42:13.408Z,2.94
2023-03-03T19:45:19.801Z,2.98
2023-03-03T19:47:54.965Z,2.95
2023-03-03T19:50:34.596Z,2.97
2023-03-03T19:53:04.170Z,2.95
2023-03-03T19:55:39.834Z,2.91
2023-03-03T19:58:28.429Z,2.83
2023-03-03T20:00:59.616Z,2.75
2023-03-03T20:03:45.045Z,2.75
2023-03-03T20:06:25.046Z,2.72
2023-03-03T20:09:09.008Z,2.69
2023-03-03T20:12:02.632Z,2.62
2023-03-03T20:14:50.104Z,2.62
2023-03-03T20:17:56.508Z,2.63
2023-03-03T20:20:44.830Z,2.62
2023-03-03T20:23:23.318Z,2.59
2023-03-03T20:26:13.945Z,2.54
2023-03-03T20:29:06.628Z,2.51
2023-03-03T20:31:51.403Z,2.50
2023-03-03T20:34:51.441Z,2.48
2023-03-03T20:37:31.067Z,2.43
2023-03-03T20:40:19.617Z,2.41
2023-03-03T20:43:06.935Z,2.33
2023-03-03T20:45:55.534Z,2.36
2023-03-03T20:49:01.740Z,2.32
2023-03-03T20:51:31.412Z,2.25
2023-03-03T20:54:11.002Z,2.20
2023-03-03T20:56:46.788Z,2.22
2023-03-03T20:59:19.490Z,2.21
2023-03-03T21:01:55.626Z,2.15
2023-03-03T21:04:25.249Z,2.12
2023-03-03T21:06:52.357Z,2.05
2023-03-03T21:09:31.413Z,2.08
2023-03-03T21:12:00.710Z,2.06
2023-03-03T21:14:34.536Z,2.03
2023-03-03T21:17:27.698Z,2.02
2023-03-03T21:19:54.380Z,2.05
2023-03-03T21:22:21.393Z,2.04
2023-03-03T21:24:48.033Z,2.02
2023-03-03T21:27:32.333Z,2.00
2023-03-03T21:30:11.847Z,1.97
2023-03-03T21:32:48.108Z,1.97
2023-03-03T21:35:21.799Z,1.90
2023-03-03T21:37:50.991Z,1.82
2023-03-03T21:40:20.921Z,1.85
2023-03-03T21:42:47.683Z,1.71
2023-03-03T21:45:16.480Z,1.78
2023-03-03T21:47:43.112Z,1.85
2023-03-03T21:50:11.519Z,1.85
2023-03-03T21:52:38.422Z,1.82
2023-03-03T21:55:06.140Z,1.75
2023-03-03T21:57:32.804Z,1.75
2023-03-03T21:59:59.524Z,1.71
2023-03-03T22:02:26.288Z,1.66
2023-03-03T22:04:53.305Z,1.67
2023-03-03T22:07:19.951Z,1.66
2023-03-03T22:09:46.589Z,1.68
2023-03-03T22:12:13.245Z,1.62
2023-03-03T22:14:39.907Z,1.59
2023-03-03T22:17:06.511Z,1.58
2023-03-03T22:19:34.313Z,1.49
2023-03-03T22:22:00.983Z,1.41
2023-03-03T22:24:27.693Z,1.48
2023-03-03T22:26:54.303Z,1.46
2023-03-03T22:29:23.061Z,1.51
2023-03-03T22:31:51.034Z,1.41
2023-03-03T22:34:17.875Z,1.46
2023-03-03T22:36:44.558Z,1.39
2023-03-03T22:39:11.367Z,1.35
2023-03-03T22:41:38.214Z,1.29
2023-03-03T22:44:05.102Z,1.41
2023-03-03T22:46:31.817Z,1.36
2023-03-03T22:48:58.464Z,1.30
2023-03-03T22:51:26.192Z,1.32
2023-03-03T22:53:53.119Z,1.25
2023-03-03T22:56:19.872Z,1.23
2023-03-03T22:58:46.533Z,1.21
2023-03-03T23:01:13.323Z,1.21
2023-03-03T23:03:40.066Z,1.19
2023-03-03T23:06:07.159Z,1.13
2023-03-03T23:08:33.805Z,1.08
2023-03-03T23:11:00.515Z,1.07
2023-03-03T23:13:27.373Z,1.06
2023-03-03T23:15:54.164Z,1.00
2023-03-03T23:18:20.774Z,1.01
2023-03-03T23:20:47.617Z,0.94
2023-03-03T23:23:14.301Z,0.88
2023-03-03T23:25:40.916Z,0.91
2023-03-03T23:28:08.300Z,0.80
2023-03-03T23:30:35.009Z,0.85
2023-03-03T23:33:01.975Z,0.72
2023-03-03T23:35:28.655Z,0.84
2023-03-03T23:37:55.303Z,0.87
2023-03-03T23:40:22.461Z,0.83
2023-03-03T23:42:49.687Z,0.88
2023-03-03T23:45:18.009Z,0.89
2023-03-03T23:47:44.766Z,0.84
2023-03-03T23:50:13.302Z,0.90
2023-03-03T23:52:40.032Z,0.81
2023-03-03T23:55:07.435Z,0.80
2023-03-03T23:57:34.051Z,0.83
